Time;durP1;ratioP1;P1;durP2;ratioP2;P2;SDS_P1;SDS_P2;PMS_P1;PMS_P2;Temp;Humidity;BMP_temperature;BMP_pressure;BME280_temperature;BME280_humidity;BME280_pressure;Samples;Min_cycle;Max_cycle;Signal;HPM_P1;HPM_P2
2020/12/04 00:00:13;;;;;;;12.47;7.08;;;;;;;-0.51;78.71;97334.98;1680773;84;21178;-66
2020/12/04 00:02:43;;;;;;;5.75;4.92;;;;;;;-0.50;79.62;97346.34;1680643;84;21146;-67
2020/12/04 00:05:11;;;;;;;8.00;5.28;;;;;;;-0.45;79.43;97337.61;1681005;84;21146;-66
2020/12/04 00:07:39;;;;;;;15.30;4.75;;;;;;;-0.41;79.50;97338.62;1680855;84;21562;-66
2020/12/04 00:10:07;;;;;;;8.18;4.62;;;;;;;-0.31;79.37;97346.56;1680889;84;21642;-66
2020/12/04 00:12:37;;;;;;;8.40;4.78;;;;;;;-0.26;78.90;97350.47;1680753;84;21191;-66
2020/12/04 00:15:14;;;;;;;11.40;5.40;;;;;;;-0.19;78.46;97353.46;1664763;86;21617;-67
2020/12/04 00:17:42;;;;;;;8.88;5.55;;;;;;;-0.16;78.23;97356.68;1679507;84;21638;-66
2020/12/04 00:20:11;;;;;;;7.67;5.92;;;;;;;-0.14;77.69;97363.77;1679597;84;21240;-66
2020/12/04 00:22:39;;;;;;;10.48;6.25;;;;;;;-0.12;77.45;97356.03;1679565;85;21189;-67
2020/12/04 00:25:07;;;;;;;8.68;6.35;;;;;;;-0.09;77.86;97367.33;1679625;84;21310;-66
2020/12/04 00:27:37;;;;;;;6.25;4.83;;;;;;;-0.07;78.17;97362.94;1680942;84;21691;-66
2020/12/04 00:30:05;;;;;;;11.48;5.62;;;;;;;-0.07;77.58;97350.17;1681171;84;21334;-66
2020/12/04 00:32:33;;;;;;;7.75;5.45;;;;;;;-0.08;77.66;97357.02;1681318;85;21326;-66
2020/12/04 00:35:02;;;;;;;10.35;6.10;;;;;;;-0.07;77.61;97359.11;1679638;85;21219;-66
2020/12/04 00:37:30;;;;;;;10.95;5.25;;;;;;;-0.06;77.42;97361.58;1679246;85;21692;-66
2020/12/04 00:39:57;;;;;;;7.67;5.40;;;;;;;-0.05;77.49;97371.34;1679386;85;21212;-66
2020/12/04 00:42:25;;;;;;;9.10;5.70;;;;;;;-0.06;77.75;97363.31;1679067;84;21188;-66
2020/12/04 00:44:53;;;;;;;13.98;5.78;;;;;;;-0.06;78.05;97367.14;1679238;85;21605;-66
2020/12/04 00:47:22;;;;;;;8.80;4.85;;;;;;;-0.05;77.96;97370.89;1679320;84;21232;-67
2020/12/04 00:49:51;;;;;;;11.97;6.10;;;;;;;-0.03;77.88;97370.78;1678951;84;21161;-67
2020/12/04 00:52:19;;;;;;;12.70;7.10;;;;;;;-0.04;77.98;97365.33;1679059;85;21193;-67
2020/12/04 00:54:47;;;;;;;14.50;7.30;;;;;;;-0.15;78.60;97366.41;1651999;85;21661;-66
2020/12/04 00:57:15;;;;;;;7.85;5.30;;;;;;;-0.16;78.54;97370.72;1678884;84;21177;-66
2020/12/04 00:59:45;;;;;;;16.73;6.72;;;;;;;-0.16;78.82;97365.61;1678850;85;21167;-66
2020/12/04 01:02:13;;;;;;;9.80;5.95;;;;;;;-0.16;78.42;97353.30;1679045;84;21259;-66
2020/12/04 01:04:41;;;;;;;8.10;4.85;;;;;;;-0.17;78.55;97346.09;1679242;85;21187;-66
2020/12/04 01:07:09;;;;;;;10.80;6.28;;;;;;;-0.22;78.33;97349.37;1678972;84;21189;-66
2020/12/04 01:09:37;;;;;;;4.67;4.12;;;;;;;-0.18;78.22;97349.55;1679749;84;21212;-65
2020/12/04 01:12:05;;;;;;;7.58;3.95;;;;;;;-0.15;78.50;97350.64;1679466;84;21681;-66
2020/12/04 01:14:33;;;;;;;4.67;4.22;;;;;;;-0.12;78.22;97355.55;1679015;85;21621;-66
2020/12/04 01:17:01;;;;;;;7.40;4.53;;;;;;;-0.09;78.01;97359.22;1679272;84;21189;-66
2020/12/04 01:19:29;;;;;;;9.20;4.30;;;;;;;-0.09;78.43;97356.67;1679183;84;21156;-66
2020/12/04 01:21:57;;;;;;;9.33;4.35;;;;;;;-0.06;78.57;97353.92;1679100;85;21263;-66
2020/12/04 01:24:25;;;;;;;6.55;4.60;;;;;;;-0.04;78.12;97358.95;1679031;84;21188;-66
2020/12/04 01:26:54;;;;;;;9.78;5.35;;;;;;;-0.03;77.95;97355.46;1679301;85;21197;-66
2020/12/04 01:29:22;;;;;;;11.30;5.40;;;;;;;0.00;77.81;97357.86;1679029;85;21171;-65
2020/12/04 01:31:50;;;;;;;6.58;4.58;;;;;;;0.04;77.56;97350.34;1679094;84;21216;-66
2020/12/04 01:34:18;;;;;;;5.97;4.30;;;;;;;0.07;77.56;97348.09;1678957;84;21620;-65
2020/12/04 01:36:50;;;;;;;6.55;3.87;;;;;;;0.11;77.50;97352.09;1678952;84;21593;-65
2020/12/04 01:39:18;;;;;;;14.20;5.55;;;;;;;0.11;77.44;97352.09;1679187;85;21196;-67
2020/12/04 01:41:45;;;;;;;13.28;5.30;;;;;;;0.15;77.25;97345.89;1678832;85;21630;-67
2020/12/04 01:44:13;;;;;;;5.10;3.85;;;;;;;0.23;76.85;97359.01;1679080;85;21161;-67
2020/12/04 01:46:42;;;;;;;8.53;4.33;;;;;;;0.29;76.73;97356.06;1679006;84;21697;-67
2020/12/04 01:49:10;;;;;;;10.38;5.50;;;;;;;0.30;76.59;97358.53;1678840;85;21216;-66
2020/12/04 01:51:38;;;;;;;6.92;4.08;;;;;;;0.38;76.19;97366.55;1679232;84;21208;-67
2020/12/04 01:54:06;;;;;;;5.08;3.50;;;;;;;0.39;75.95;97354.57;1679255;84;21216;-68
2020/12/04 01:56:38;;;;;;;6.55;3.50;;;;;;;0.39;75.50;97351.56;1678977;84;21223;-67
2020/12/04 01:59:05;;;;;;;9.70;5.17;;;;;;;0.45;75.41;97354.20;1678954;84;21593;-68
2020/12/04 02:01:38;;;;;;;6.58;4.55;;;;;;;0.45;75.43;97343.99;1678952;84;21191;-68
2020/12/04 02:04:09;;;;;;;5.75;3.17;;;;;;;0.47;75.30;97345.98;1679276;85;21223;-68
2020/12/04 02:07:17;;;;;;;5.80;2.95;;;;;;;0.42;75.36;97341.19;1678890;84;21224;-67
2020/12/04 02:09:50;;;;;;;6.00;3.37;;;;;;;0.47;75.25;97345.52;1700896;84;21211;-68
2020/12/04 02:12:24;;;;;;;8.88;4.03;;;;;;;0.47;75.25;97340.87;1700874;84;21191;-67
2020/12/04 02:14:53;;;;;;;6.40;2.72;;;;;;;0.45;75.17;97346.09;1698397;84;21139;-67
2020/12/04 02:17:59;;;;;;;5.12;3.45;;;;;;;0.45;75.07;97340.16;1700908;83;21180;-67
2020/12/04 02:20:25;;;;;;;7.75;3.92;;;;;;;0.40;75.18;97335.33;1671117;84;21275;-67
2020/12/04 02:22:53;;;;;;;4.37;2.83;;;;;;;0.39;75.21;97340.07;1671243;84;21649;-67
2020/12/04 02:25:21;;;;;;;5.15;3.35;;;;;;;0.44;75.13;97330.84;1671342;84;21179;-67
2020/12/04 02:27:50;;;;;;;5.83;3.83;;;;;;;0.46;75.08;97334.14;1671361;84;21196;-67
2020/12/04 02:30:51;;;;;;;6.12;3.70;;;;;;;0.48;74.96;97339.51;1671443;84;21236;-67
2020/12/04 02:33:19;;;;;;;12.53;3.50;;;;;;;0.48;75.10;97336.95;1667419;85;21156;-67
2020/12/04 02:35:47;;;;;;;6.28;3.85;;;;;;;0.49;75.23;97344.16;1667621;86;21167;-68
2020/12/04 02:38:14;;;;;;;7.70;4.28;;;;;;;0.51;75.14;97338.97;1667586;86;21591;-67
2020/12/04 02:40:42;;;;;;;4.80;3.17;;;;;;;0.51;75.21;97336.42;1667677;86;21573;-67
2020/12/04 02:43:11;;;;;;;5.78;4.35;;;;;;;0.45;75.39;97328.66;1667460;85;21638;-67
2020/12/04 02:45:39;;;;;;;9.65;3.75;;;;;;;0.48;75.32;97338.23;1667492;86;21131;-67
2020/12/04 02:48:07;;;;;;;9.60;3.77;;;;;;;0.47;75.46;97341.69;1667851;85;21171;-67
2020/12/04 02:50:35;;;;;;;6.40;4.03;;;;;;;0.52;75.06;97328.64;1667628;85;21198;-67
2020/12/04 02:53:03;;;;;;;6.25;3.10;;;;;;;0.56;74.85;97330.54;1667790;86;21576;-68
2020/12/04 02:55:37;;;;;;;7.60;3.40;;;;;;;0.58;74.81;97333.83;1707223;81;21261;-68
2020/12/04 02:58:04;;;;;;;12.43;3.98;;;;;;;0.61;74.51;97325.52;1707413;83;21617;-68
2020/12/04 03:00:32;;;;;;;4.53;2.65;;;;;;;0.65;74.17;97315.91;1707232;83;21196;-67
2020/12/04 03:03:00;;;;;;;3.77;2.87;;;;;;;0.68;74.13;97313.16;1707247;83;21161;-67
2020/12/04 03:05:28;;;;;;;6.17;3.83;;;;;;;0.68;73.94;97322.92;1707447;83;22341;-68
2020/12/04 03:07:56;;;;;;;7.40;5.15;;;;;;;0.72;73.66;97329.94;1707571;83;21201;-67
2020/12/04 03:10:23;;;;;;;7.53;4.53;;;;;;;0.72;73.45;97329.48;1707579;83;21723;-67
2020/12/04 03:12:53;;;;;;;4.42;3.45;;;;;;;0.74;73.46;97327.63;1707561;83;21184;-67
2020/12/04 03:15:21;;;;;;;4.85;3.30;;;;;;;0.72;73.38;97312.87;1707503;83;21216;-67
2020/12/04 03:17:49;;;;;;;6.60;4.05;;;;;;;0.73;73.41;97298.36;1707700;83;21314;-67
2020/12/04 03:20:17;;;;;;;5.47;3.42;;;;;;;0.65;73.64;97299.30;1707484;83;21181;-67
2020/12/04 03:22:45;;;;;;;10.85;4.40;;;;;;;0.66;73.60;97306.06;1707609;83;21231;-67
2020/12/04 03:25:14;;;;;;;8.78;4.45;;;;;;;0.66;73.61;97304.30;1707717;83;21190;-67
2020/12/04 03:27:42;;;;;;;10.60;5.35;;;;;;;0.62;73.78;97293.95;1707532;83;21558;-67
2020/12/04 03:30:15;;;;;;;10.03;3.87;;;;;;;0.63;73.84;97308.79;1710606;81;21169;-68
2020/12/04 03:32:43;;;;;;;8.60;4.40;;;;;;;0.65;73.75;97313.36;1664170;85;21578;-69
2020/12/04 03:35:11;;;;;;;15.23;4.50;;;;;;;0.65;73.69;97309.08;1710021;82;21172;-68
2020/12/04 03:37:39;;;;;;;5.60;2.87;;;;;;;0.66;73.57;97304.78;1663959;85;21225;-68
2020/12/04 03:40:07;;;;;;;6.97;4.03;;;;;;;0.65;73.45;97294.20;1709806;84;21625;-68
2020/12/04 03:42:36;;;;;;;10.82;4.25;;;;;;;0.65;73.56;97303.96;1664110;85;21175;-68
2020/12/04 03:45:04;;;;;;;7.12;4.08;;;;;;;0.64;73.47;97309.98;1710008;83;21132;-66
2020/12/04 03:47:31;;;;;;;12.60;4.33;;;;;;;0.62;73.55;97313.56;1664288;85;21603;-68
2020/12/04 03:50:01;;;;;;;6.12;4.65;;;;;;;0.60;73.85;97305.16;1710270;83;21179;-68
2020/12/04 03:52:31;;;;;;;6.17;2.98;;;;;;;0.61;73.86;97308.91;1710424;84;21176;-68
2020/12/04 03:54:59;;;;;;;6.53;4.42;;;;;;;0.64;73.82;97310.44;1664237;85;21590;-66
2020/12/04 03:57:27;;;;;;;7.90;3.65;;;;;;;0.66;73.78;97317.08;1710230;83;21188;-67
2020/12/04 03:59:55;;;;;;;4.60;2.67;;;;;;;0.67;73.83;97316.16;1664543;85;21635;-67
2020/12/04 04:02:23;;;;;;;4.60;2.40;;;;;;;0.72;73.87;97318.44;1710465;84;21598;-66
2020/12/04 04:04:51;;;;;;;7.20;4.00;;;;;;;0.75;73.79;97305.00;1663885;85;21627;-66
2020/12/04 04:07:19;;;;;;;7.22;4.62;;;;;;;0.80;73.74;97308.55;1710050;83;21208;-68
2020/12/04 04:09:47;;;;;;;8.95;4.15;;;;;;;0.81;73.68;97309.73;1664206;85;21175;-65
2020/12/04 04:12:15;;;;;;;4.55;3.05;;;;;;;0.86;73.65;97313.25;1710066;84;21156;-67
2020/12/04 04:14:43;;;;;;;6.97;4.60;;;;;;;0.90;73.60;97313.41;1664079;86;21626;-67
2020/12/04 04:17:11;;;;;;;5.70;3.30;;;;;;;0.91;73.48;97315.88;1710052;84;21185;-67
2020/12/04 04:19:39;;;;;;;5.22;3.02;;;;;;;0.94;73.58;97313.12;1664476;86;21190;-67
2020/12/04 04:22:07;;;;;;;5.37;3.75;;;;;;;0.97;73.42;97313.86;1709891;83;21216;-66
2020/12/04 04:24:35;;;;;;;3.10;2.72;;;;;;;0.97;73.39;97321.07;1664128;85;21191;-66
2020/12/04 04:27:03;;;;;;;5.35;3.33;;;;;;;0.99;73.45;97320.95;1709817;84;21176;-66
2020/12/04 04:29:32;;;;;;;8.83;3.83;;;;;;;1.00;73.50;97316.20;1675628;85;21165;-67
2020/12/04 04:31:59;;;;;;;11.38;4.03;;;;;;;1.00;73.52;97314.47;1670439;86;21242;-68
2020/12/04 04:34:27;;;;;;;11.57;4.25;;;;;;;1.01;73.65;97307.17;1677856;84;21142;-68
2020/12/04 04:36:56;;;;;;;6.55;3.75;;;;;;;0.99;73.85;97312.00;1677886;85;21171;-69
2020/12/04 04:39:24;;;;;;;3.37;2.95;;;;;;;1.01;73.81;97307.62;1678539;85;21170;-68
2020/12/04 04:41:57;;;;;;;4.70;3.12;;;;;;;1.01;73.81;97302.06;1678057;85;21202;-67
2020/12/04 04:44:26;;;;;;;5.87;3.27;;;;;;;1.01;74.05;97303.34;1677871;85;21193;-68
2020/12/04 04:47:12;;;;;;;4.55;3.50;;;;;;;1.02;74.24;97307.96;1677930;85;21214;-66
2020/12/04 04:49:48;;;;;;;5.10;3.47;;;;;;;1.02;74.31;97301.12;1677915;85;21218;-67
2020/12/04 04:52:17;;;;;;;5.80;3.47;;;;;;;1.04;74.43;97304.41;1678368;85;21191;-66
2020/12/04 04:54:48;;;;;;;4.62;3.30;;;;;;;1.07;74.29;97299.09;1677928;85;21607;-67
2020/12/04 04:57:22;;;;;;;7.05;3.52;;;;;;;1.10;74.21;97301.89;1677904;85;21218;-68
2020/12/04 04:59:54;;;;;;;3.35;2.15;;;;;;;1.12;74.03;97305.19;1677916;84;21190;-66
2020/12/04 05:02:23;;;;;;;4.37;2.50;;;;;;;1.19;73.52;97303.41;1677597;84;21170;-66
2020/12/04 05:04:54;;;;;;;4.50;3.62;;;;;;;1.24;73.28;97300.55;1677642;84;21642;-66
2020/12/04 05:07:33;;;;;;;5.58;3.17;;;;;;;1.28;73.08;97313.49;1677805;84;21162;-68
2020/12/04 05:10:14;;;;;;;4.25;2.67;;;;;;;1.31;73.16;97306.89;1677562;85;21182;-70
2020/12/04 05:12:45;;;;;;;3.72;2.75;;;;;;;1.32;73.02;97304.20;1650015;87;21179;-70
2020/12/04 05:15:24;;;;;;;7.30;2.92;;;;;;;1.34;72.70;97304.94;1661011;84;21146;-71
2020/12/04 05:18:12;;;;;;;5.10;3.20;;;;;;;1.36;72.56;97301.80;1676955;84;21205;-70
2020/12/04 05:20:50;;;;;;;3.62;2.33;;;;;;;1.32;72.49;97301.65;1677754;85;21210;-70
2020/12/04 05:23:19;;;;;;;4.92;4.15;;;;;;;1.34;72.43;97276.80;1677116;85;21611;-70
2020/12/04 05:25:54;;;;;;;4.55;3.20;;;;;;;1.37;72.55;97293.22;1678040;84;21199;-70
2020/12/04 05:28:25;;;;;;;5.67;3.02;;;;;;;1.38;72.61;97297.42;1678124;84;21230;-70
2020/12/04 05:31:11;;;;;;;3.72;2.40;;;;;;;1.42;72.60;97314.66;1678114;84;21158;-69
2020/12/04 05:33:44;;;;;;;4.05;3.12;;;;;;;1.45;72.75;97327.25;1686550;85;21360;-70
2020/12/04 05:36:30;;;;;;;4.83;2.98;;;;;;;1.48;72.78;97326.24;1670917;86;21146;-69
2020/12/04 05:38:58;;;;;;;8.43;2.80;;;;;;;1.49;72.75;97324.02;1687641;84;21174;-70
2020/12/04 05:41:26;;;;;;;6.28;3.05;;;;;;;1.47;72.62;97308.79;1672234;84;21213;-71
2020/12/04 05:43:56;;;;;;;6.95;3.55;;;;;;;1.46;72.59;97305.04;1687490;84;21174;-71
2020/12/04 05:46:26;;;;;;;6.67;3.17;;;;;;;1.42;72.51;97300.14;1671456;84;21371;-70
2020/12/04 05:49:17;;;;;;;5.25;2.62;;;;;;;1.43;72.58;97300.95;1685988;84;21236;-71
2020/12/04 05:51:48;;;;;;;3.77;2.33;;;;;;;1.41;72.88;97303.61;1662448;86;21687;-70
2020/12/04 05:54:18;;;;;;;4.50;3.08;;;;;;;1.46;72.84;97310.16;1636210;86;21197;-71
2020/12/04 05:56:51;;;;;;;5.33;2.90;;;;;;;1.55;72.77;97311.66;1662470;86;21166;-71
2020/12/04 05:59:22;;;;;;;4.75;2.45;;;;;;;1.63;72.46;97313.23;1662370;86;21659;-71
2020/12/04 06:01:50;;;;;;;9.98;3.72;;;;;;;1.80;71.97;97312.89;1667907;86;21188;-71
2020/12/04 06:04:19;;;;;;;3.90;2.62;;;;;;;1.85;71.69;97304.45;1669482;86;21219;-70
2020/12/04 06:06:49;;;;;;;2.45;2.25;;;;;;;1.90;71.79;97307.53;1667707;86;21196;-70
2020/12/04 06:09:21;;;;;;;6.15;2.58;;;;;;;2.02;70.98;97307.14;1667624;86;21271;-70
2020/12/04 06:11:49;;;;;;;4.00;2.95;;;;;;;2.11;70.78;97313.34;1667584;86;21194;-71
2020/12/04 06:14:30;;;;;;;3.72;2.45;;;;;;;2.18;70.66;97326.11;1687005;85;21237;-70
2020/12/04 06:17:04;;;;;;;3.72;1.52;;;;;;;2.22;70.30;97333.91;1687151;84;21171;-70
2020/12/04 06:19:38;;;;;;;4.85;3.08;;;;;;;2.24;70.22;97331.61;1687254;85;21176;-72
2020/12/04 06:22:17;;;;;;;5.12;2.55;;;;;;;2.27;70.26;97331.39;1687158;84;21601;-70
2020/12/04 06:25:00;;;;;;;8.10;3.27;;;;;;;2.32;70.53;97320.38;1687067;85;21176;-70
2020/12/04 06:27:45;;;;;;;4.60;3.20;;;;;;;2.34;70.38;97321.06;1687812;84;21586;-71
2020/12/04 06:30:17;;;;;;;3.58;2.12;;;;;;;2.36;70.22;97323.08;1687705;85;21622;-70
2020/12/04 06:32:49;;;;;;;3.10;2.40;;;;;;;2.38;69.95;97322.49;1687697;85;21176;-70
2020/12/04 06:35:43;;;;;;;6.60;3.42;;;;;;;2.37;70.15;97332.38;1686980;84;21212;-71
2020/12/04 06:38:40;;;;;;;6.85;3.30;;;;;;;2.41;69.90;97348.84;1687096;84;21260;-71
2020/12/04 06:41:32;;;;;;;5.92;4.10;;;;;;;2.44;69.84;97349.91;1686666;84;21259;-72
2020/12/04 06:44:17;;;;;;;6.87;3.27;;;;;;;2.50;71.20;97341.31;1687095;85;21169;-72
2020/12/04 06:46:48;;;;;;;6.22;3.17;;;;;;;2.52;70.37;97343.32;1687130;85;21192;-72
2020/12/04 06:52:30;;;;;;;5.77;3.00;;;;;;;2.14;69.57;97262.72;1687374;84;21231;-72
2020/12/04 06:54:59;;;;;;;5.45;3.20;;;;;;;2.64;70.08;97340.35;1698169;84;21166;-72
2020/12/04 06:57:27;;;;;;;6.50;3.52;;;;;;;2.70;69.83;97340.72;1698622;84;21136;-70
2020/12/04 07:00:17;;;;;;;7.20;4.37;;;;;;;2.79;70.23;97332.39;1694718;85;21210;-72
2020/12/04 07:02:47;;;;;;;8.98;3.85;;;;;;;2.86;69.17;97339.98;1694619;84;21624;-72
2020/12/04 07:05:24;;;;;;;16.42;4.25;;;;;;;2.90;68.80;97340.58;1694525;84;21180;-69
2020/12/04 07:08:08;;;;;;;12.03;4.58;;;;;;;2.78;69.07;97329.92;1694693;83;21590;-68
2020/12/04 07:10:37;;;;;;;4.67;3.02;;;;;;;2.92;68.59;97344.33;1741147;82;21140;-68
2020/12/04 07:13:06;;;;;;;8.20;3.90;;;;;;;3.01;69.19;97343.64;1759971;81;21145;-72
2020/12/04 07:15:36;;;;;;;9.23;4.03;;;;;;;3.09;69.01;97342.63;1759540;81;21601;-69
2020/12/04 07:18:04;;;;;;;7.40;4.00;;;;;;;3.13;68.67;97338.45;1759809;81;21700;-69
2020/12/04 07:20:37;;;;;;;5.80;3.25;;;;;;;3.21;68.54;97357.95;1752444;81;21272;-69
2020/12/04 07:23:07;;;;;;;7.47;3.27;;;;;;;3.27;68.59;97351.08;1700647;84;21195;-68
2020/12/04 07:25:36;;;;;;;6.78;3.67;;;;;;;3.34;67.40;97347.16;1688472;84;21168;-67
2020/12/04 07:28:04;;;;;;;9.88;4.33;;;;;;;3.42;67.03;97356.86;1670727;86;21231;-67
2020/12/04 07:30:32;;;;;;;6.42;4.12;;;;;;;3.39;67.34;97363.94;1714549;82;21168;-68
2020/12/04 07:33:00;;;;;;;7.00;4.42;;;;;;;3.54;66.78;97333.31;1696793;83;21148;-67
2020/12/04 07:35:28;;;;;;;7.25;3.08;;;;;;;3.52;66.88;97336.44;1689433;84;22309;-67
2020/12/04 07:37:56;;;;;;;7.87;3.65;;;;;;;3.59;66.55;97342.75;1729187;82;21203;-68
2020/12/04 07:40:37;;;;;;;10.78;6.33;;;;;;;3.66;66.75;97330.61;1602059;89;21625;-68
2020/12/04 07:43:11;;;;;;;7.75;4.15;;;;;;;3.80;66.47;97347.56;1624042;87;21579;-66
2020/12/04 07:45:39;;;;;;;6.72;3.72;;;;;;;3.90;65.52;97340.79;1606893;89;21586;-66
2020/12/04 07:48:07;;;;;;;5.10;3.52;;;;;;;4.01;65.61;97353.63;1605877;89;21348;-68
2020/12/04 07:50:36;;;;;;;3.90;2.37;;;;;;;4.14;65.28;97349.20;1616518;88;21620;-66
2020/12/04 07:53:04;;;;;;;7.30;2.45;;;;;;;4.36;64.29;97350.92;1630751;86;21189;-70
2020/12/04 07:55:36;;;;;;;4.45;2.08;;;;;;;4.70;62.86;97346.08;1629348;87;21286;-67
2020/12/04 07:58:32;;;;;;;6.17;2.80;;;;;;;4.92;61.99;97347.75;1629305;88;21193;-68
2020/12/04 08:01:00;;;;;;;7.33;2.90;;;;;;;5.05;62.77;97351.45;1641888;86;21186;-69
2020/12/04 08:03:29;;;;;;;6.50;3.22;;;;;;;4.96;62.29;97336.28;1614132;89;21185;-68
2020/12/04 08:06:09;;;;;;;8.93;3.22;;;;;;;5.08;62.34;97344.77;1614315;88;21665;-67
2020/12/04 08:08:38;;;;;;;25.72;3.65;;;;;;;5.20;63.08;97343.31;1653038;87;21596;-68
2020/12/04 08:11:14;;;;;;;9.18;3.22;;;;;;;5.19;63.07;97334.41;1653161;86;21587;-68
2020/12/04 08:13:45;;;;;;;4.50;3.05;;;;;;;5.42;62.99;97347.98;1653486;87;21179;-69
2020/12/04 08:16:14;;;;;;;6.00;3.58;;;;;;;5.57;61.22;97351.41;1653548;86;21205;-67
2020/12/04 08:18:46;;;;;;;3.95;2.12;;;;;;;5.60;61.88;97343.91;1653075;87;21239;-69
2020/12/04 08:21:14;;;;;;;38.13;16.50;;;;;;;5.69;60.98;97363.27;1652955;85;21241;-71
2020/12/04 08:23:42;;;;;;;12.80;5.80;;;;;;;5.86;60.96;97349.03;1652944;85;21184;-69
2020/12/04 08:26:16;;;;;;;9.73;4.53;;;;;;;5.91;60.68;97368.80;1652937;85;21179;-70
2020/12/04 08:28:55;;;;;;;7.28;3.37;;;;;;;6.14;61.01;97357.84;1653094;85;21164;-69
2020/12/04 08:31:33;;;;;;;5.08;2.22;;;;;;;6.33;60.75;97360.48;1653358;85;21191;-69
2020/12/04 08:34:03;;;;;;;3.52;2.25;;;;;;;6.35;59.84;97356.47;1653271;85;21163;-71
2020/12/04 08:36:31;;;;;;;6.20;3.15;;;;;;;6.55;57.89;97337.52;1653471;85;21212;-71
2020/12/04 08:38:59;;;;;;;3.67;2.60;;;;;;;6.63;58.54;97353.97;1653313;85;21690;-72
2020/12/04 08:41:37;;;;;;;8.63;3.05;;;;;;;6.83;58.55;97356.58;1652555;85;21221;-73
2020/12/04 08:44:06;;;;;;;6.12;3.33;;;;;;;6.56;58.31;97354.17;1653261;85;21167;-74
2020/12/04 08:46:37;;;;;;;4.83;3.15;;;;;;;6.58;58.26;97347.56;1653106;85;21171;-71
2020/12/04 08:49:05;;;;;;;5.53;3.27;;;;;;;6.73;58.01;97341.07;1653446;85;21218;-71
2020/12/04 08:51:32;;;;;;;6.60;2.98;;;;;;;6.78;57.84;97331.17;1653376;86;21152;-71
2020/12/04 08:54:01;;;;;;;5.75;3.45;;;;;;;7.09;57.30;97333.97;1651965;85;21621;-69
2020/12/04 08:56:29;;;;;;;7.72;2.75;;;;;;;6.76;58.20;97327.92;1626470;88;21580;-72
2020/12/04 08:58:57;;;;;;;5.17;3.65;;;;;;;6.85;57.93;97318.06;1614239;88;21254;-71
2020/12/04 09:01:24;;;;;;;9.85;4.25;;;;;;;7.05;57.70;97316.30;1597796;90;21237;-71
2020/12/04 09:03:54;;;;;;;7.25;3.95;;;;;;;7.14;57.69;97305.17;1597729;90;21626;-71
2020/12/04 09:06:22;;;;;;;6.95;3.52;;;;;;;7.11;57.57;97323.05;1598020;90;21213;-69
2020/12/04 09:08:51;;;;;;;4.67;2.70;;;;;;;7.06;57.29;97330.38;1598322;90;21809;-72
2020/12/04 09:11:19;;;;;;;4.20;3.05;;;;;;;7.72;57.97;97331.71;1598211;90;21210;-72
2020/12/04 09:13:47;;;;;;;7.22;4.00;;;;;;;7.88;54.88;97335.82;1598361;89;21274;-72
2020/12/04 09:16:14;;;;;;;8.85;3.30;;;;;;;8.05;54.59;97327.30;1598537;90;21216;-72
2020/12/04 09:18:42;;;;;;;6.10;2.77;;;;;;;8.45;53.98;97326.20;1598605;88;21207;-72
2020/12/04 09:21:10;;;;;;;6.25;3.85;;;;;;;8.73;53.06;97303.69;1598326;88;21214;-73
2020/12/04 09:23:38;;;;;;;8.85;3.50;;;;;;;8.27;53.79;97304.63;1598391;90;21178;-74
2020/12/04 09:26:10;;;;;;;7.03;3.40;;;;;;;8.37;54.23;97314.46;1598575;90;21603;-73
2020/12/04 09:28:40;;;;;;;6.20;3.37;;;;;;;8.84;52.35;97304.77;1598028;90;21653;-73
2020/12/04 09:31:07;;;;;;;5.53;3.30;;;;;;;9.20;52.15;97309.45;1597976;88;21242;-71
2020/12/04 09:33:35;;;;;;;7.85;4.25;;;;;;;9.02;51.90;97319.36;1598056;90;21221;-72
2020/12/04 09:36:03;;;;;;;5.70;3.42;;;;;;;8.64;53.42;97312.35;1613768;87;21238;-72
2020/12/04 09:38:31;;;;;;;5.67;3.20;;;;;;;8.91;53.05;97311.79;1598801;88;21197;-72
2020/12/04 09:40:59;;;;;;;8.70;3.42;;;;;;;9.22;52.02;97311.42;1598705;90;21206;-71
2020/12/04 09:43:27;;;;;;;7.05;3.27;;;;;;;9.17;52.47;97303.28;1598630;90;21165;-74
2020/12/04 09:45:56;;;;;;;5.37;3.30;;;;;;;9.49;51.44;97310.01;1598612;88;21173;-72
2020/12/04 09:48:24;;;;;;;7.15;3.72;;;;;;;9.54;51.25;97320.23;1598698;88;21181;-71
2020/12/04 09:50:54;;;;;;;4.00;2.62;;;;;;;9.87;50.38;97327.75;1583628;90;21604;-71
2020/12/04 09:53:22;;;;;;;10.30;4.67;;;;;;;10.34;50.10;97311.78;1598811;90;21242;-71
2020/12/04 09:55:49;;;;;;;14.65;5.17;;;;;;;9.40;51.77;97309.61;1604589;88;21634;-74
2020/12/04 09:58:17;;;;;;;8.25;3.60;;;;;;;9.64;51.75;97310.27;1601318;89;21210;-72
2020/12/04 10:00:45;;;;;;;16.75;8.90;;;;;;;9.35;51.69;97310.54;1616103;87;21191;-72
2020/12/04 10:03:14;;;;;;;11.85;5.42;;;;;;;9.99;50.03;97314.03;1621973;88;21229;-71
2020/12/04 10:05:42;;;;;;;20.85;5.28;;;;;;;10.09;50.56;97307.41;1670693;84;21180;-71
2020/12/04 10:08:11;;;;;;;12.00;5.72;;;;;;;10.15;49.76;97296.47;1640297;86;21185;-72
2020/12/04 10:10:39;;;;;;;6.50;3.90;;;;;;;9.60;51.15;97300.69;1670737;84;21260;-72
2020/12/04 10:13:09;;;;;;;8.58;3.47;;;;;;;9.41;51.89;97319.02;1671104;86;21157;-72
2020/12/04 10:15:37;;;;;;;7.53;2.83;;;;;;;10.10;51.64;97311.64;1670883;86;21201;-72
2020/12/04 10:18:07;;;;;;;5.15;3.25;;;;;;;10.57;51.20;97312.02;1670646;84;21183;-71
2020/12/04 10:20:35;;;;;;;6.65;2.50;;;;;;;10.68;48.67;97310.41;1670817;84;21192;-72
2020/12/04 10:23:03;;;;;;;10.50;3.47;;;;;;;11.14;48.33;97319.41;1670648;86;21177;-72
2020/12/04 10:25:31;;;;;;;6.20;3.27;;;;;;;10.66;48.61;97312.38;1640251;86;21186;-72
2020/12/04 10:27:59;;;;;;;8.58;3.60;;;;;;;10.52;48.98;97307.29;1670900;86;21229;-72
2020/12/04 10:30:28;;;;;;;8.10;3.20;;;;;;;10.43;49.08;97312.12;1670994;84;21208;-69
2020/12/04 10:32:58;;;;;;;9.30;3.77;;;;;;;10.48;48.90;97303.38;1670588;84;21156;-69
2020/12/04 10:35:26;;;;;;;7.37;3.35;;;;;;;10.13;50.28;97312.14;1671392;84;21249;-69
2020/12/04 10:37:56;;;;;;;4.42;1.87;;;;;;;10.89;49.37;97312.88;1643294;85;21215;-73
2020/12/04 10:40:24;;;;;;;4.10;1.82;;;;;;;11.12;47.48;97305.30;1662549;86;21600;-73
2020/12/04 10:42:52;;;;;;;3.35;2.08;;;;;;;11.63;48.30;97300.23;1643660;86;21254;-74
2020/12/04 10:45:19;;;;;;;10.35;3.55;;;;;;;12.09;47.07;97325.19;1643971;86;21210;-73
2020/12/04 10:47:47;;;;;;;11.30;3.92;;;;;;;12.06;45.93;97326.31;1643735;87;21207;-73
2020/12/04 10:50:15;;;;;;;4.78;2.62;;;;;;;11.24;47.15;97322.19;1643996;86;21202;-72
2020/12/04 10:52:43;;;;;;;7.00;3.35;;;;;;;11.78;45.82;97336.32;1644075;86;21159;-72
2020/12/04 10:55:12;;;;;;;4.75;2.40;;;;;;;12.30;46.15;97318.91;1659221;86;21156;-73
2020/12/04 10:57:40;;;;;;;3.92;2.22;;;;;;;12.82;46.49;97295.22;1659201;85;21212;-73
2020/12/04 11:00:08;;;;;;;4.60;2.65;;;;;;;12.96;45.98;97292.83;1639226;86;21230;-74
2020/12/04 11:02:38;;;;;;;2.30;1.80;;;;;;;12.78;43.92;97295.73;1629748;87;21195;-74
2020/12/04 11:07:52;;;;;;;;;;;;;;;13.22;43.20;97309.80;1619793;89;21644;-74
2020/12/04 11:10:20;;;;;;;6.90;2.98;;;;;;;13.86;41.98;97311.97;1602640;89;20145;-76
2020/12/04 11:12:48;;;;;;;7.22;3.62;;;;;;;13.09;44.43;97298.28;1629773;87;21904;-74
2020/12/04 11:15:16;;;;;;;4.55;2.40;;;;;;;12.75;44.49;97311.22;1629735;88;21381;-74
2020/12/04 11:17:44;;;;;;;3.72;2.15;;;;;;;12.39;44.15;97295.77;1629747;87;21224;-75
2020/12/04 11:20:15;;;;;;;2.75;1.98;;;;;;;12.17;45.03;97293.92;1629678;88;21220;-74
2020/12/04 11:22:43;;;;;;;3.75;1.98;;;;;;;12.47;44.14;97280.11;1628969;87;21263;-74
2020/12/04 11:25:12;;;;;;;3.05;1.92;;;;;;;12.93;43.98;97297.09;1628535;87;21691;-73
2020/12/04 11:27:45;;;;;;;7.50;2.85;;;;;;;13.36;43.20;97289.95;1618276;89;21215;-74
2020/12/04 11:30:17;;;;;;;5.87;3.17;;;;;;;13.27;42.55;97293.11;1602660;89;21200;-74
2020/12/04 11:32:47;;;;;;;6.80;2.87;;;;;;;13.71;41.94;97272.33;1618267;87;21271;-74
2020/12/04 11:35:17;;;;;;;3.62;2.35;;;;;;;13.29;42.74;97269.48;1602411;88;21200;-73
2020/12/04 11:37:49;;;;;;;7.20;2.27;;;;;;;12.61;44.10;97266.34;1630804;87;21737;-74
2020/12/04 11:40:18;;;;;;;3.90;2.58;;;;;;;13.33;42.67;97285.58;1625286;87;21227;-74
2020/12/04 11:42:46;;;;;;;4.50;2.55;;;;;;;13.22;42.87;97278.99;1643539;86;21189;-73
2020/12/04 11:45:16;;;;;;;31.20;15.75;;;;;;;13.78;42.41;97291.50;1617896;88;21196;-74
2020/12/04 11:47:44;;;;;;;6.37;4.10;;;;;;;14.28;41.71;97298.60;1643429;87;21655;-75
2020/12/04 11:50:16;;;;;;;5.17;2.90;;;;;;;13.52;41.21;97291.11;1617890;88;21616;-74
2020/12/04 11:52:45;;;;;;;26.80;12.03;;;;;;;12.34;44.36;97291.07;1620207;87;21202;-75
2020/12/04 11:55:14;;;;;;;4.90;3.17;;;;;;;12.69;44.46;97294.95;1586936;89;21218;-73
2020/12/04 11:57:42;;;;;;;4.22;2.20;;;;;;;12.78;44.13;97290.52;1611586;88;21223;-73
2020/12/04 12:00:11;;;;;;;9.03;3.02;;;;;;;12.94;43.97;97292.20;1591711;88;21628;-75